HRHO2: North Canadian River

                                SHEF ID:       HRHO2     North Canadian River near Harrah
STATION TYPE:
Regulating: Stage = 15.00, Flow = 8563

STAGE RIV-FLOW WTR-TEMP DIS-OXY PH CONDUCT BAT-LOAD
ft cfs F mg/l su umho/cm volt
Ccp-Rev Ccp-Rev Ccp-Rev Ccp-Rev Ccp-Rev Ccp-Rev Ccp-Rev
(America/Chicago)
05/05 00:00 3.22 120 70.56 6.37 8.15 878 12.02
05/05 01:00 3.22 120 69.94 6.14 8.14 879 12.05
05/05 02:00 3.22 120 69.37 6.10 8.06 883 12.04
05/05 03:00 3.22 120 68.94 5.89 7.98 882 12.04
05/05 04:00 3.24 123 68.59 6.10 7.94 883 12.04
05/05 05:00 3.25 125 68.27 5.84 7.86 885 12.03
05/05 06:00 3.25 125 67.96 6.44 7.83 887 12.01
05/05 07:00 3.26 127 67.95 6.33 7.81 888 12.01
05/05 08:00 3.26 127 68.40 7.79 7.98 889 12.01
05/05 09:00 3.27 129 69.08 9.03 8.18 890 12.22
05/05 10:00 3.27 129 69.75 10.67 8.38 888 12.57
05/05 11:00 3.27 129 69.94 11.13 8.48 886 12.73
05/05 12:00 3.27 129 69.19 11.41 8.54 886 12.73
05/05 13:00 3.27 129 68.49 11.65 8.58 884 12.80
05/05 14:00 3.27 129 67.77 11.87 8.60 884 12.95
05/05 15:00 3.27 129 67.01 11.80 8.60 881 13.02
05/05 16:00 3.27 129 66.54 11.81 8.62 881 13.01
05/05 17:00 3.27 129 65.86 11.53 8.60 877 13.13
05/05 18:00 3.27 129 64.99 11.08 8.58 877 13.00
05/05 19:00 3.26 127 64.15 10.34 8.53 879 12.82
05/05 20:00 3.25 125 63.23 9.71 8.48 882 12.63
05/05 21:00 3.24 123 62.31 8.95 8.38 885 12.41
05/05 22:00 3.23 122 61.45 8.68 8.30 890 12.23
05/05 23:00 3.23 122 61.09 8.51 8.22 892 12.07
Data processed at Wed 06May2026 04:25 GMT

NOTICE: If you are parsing this page

Please convert to using our Data API. Starting early 2026 we will be migrating to: https://water.usace.army.mil with modern pages rendered in JavaScript. When this migration completes you will no longer be able to scrape this page! CWMSDataAPI (CDA)

Timeseries IDs (TSIDs)

TSIDs used from left to right in the data table
HARR.Stage.Inst.1Hour.0.Ccp-Rev
HARR.Flow.Inst.1Hour.0.Ccp-Rev
HARR.Temp-Water.Inst.1Hour.0.Ccp-Rev
HARR.Conc-DO.Inst.1Hour.0.Ccp-Rev
HARR.pH.Inst.1Hour.0.Ccp-Rev
HARR.Cond-Water.Inst.1Hour.0.Ccp-Rev
HARR.Volt-Battery Load.Inst.1Hour.0.Ccp-Rev

                            

All information presented herein is the property of the government of the United States of America and may be revised or deleted at any time without prior notice. Dissemination of this information without the expressed written consent of the Public Affairs Office, Tulsa District U.S. Army Corps of Engineers is strictly prohibited. These data are gathered electronically and, as presented, have NOT undergone any form of quality control. These data are NOT guaranteed to be valid or correct.